Decoded Metar for OMFJ (FUJEIRAH in UNITED ARAB EMIRATES) (IATA:FJR) | Meteo·Mobile Aviation Weather
aviador You're here:

OMFJ Decoded Metar

FUJEIRAH in UNITED ARAB EMIRATES
Report Time2019-01-19 16:00:00
UTC Time2019-01-19 16:11:39
Flight Rules ifr IFR
Wind290° at 16 kt
W.Decomp.*RWY 29: 16.0 kt HW 0 kt LCW
W.Rank290° ranks 1
Current wind is above 290° avg. (9.9)
Visibility3000 m
Phenomena:Widespread Dust
Clouds:N/A
Expected CloudBase > 4,000 ft AGL from Temp-Dew spread
CeilingNone
Temp20°C (ISA +5)
Dew Point10°C (53% RH)
AAT14.3°C
QNH1016 hPa
Density Alt764 ft
Elevation92 ft
Report Wrong Elevation
Raw Report
METAR OMFJ 191600Z 29016KT 3000 DU NSC 20/10 Q1016 A3001=

Extra information for OMFJ:More info

Metar Taf Metar & Taf Last 4 Metars F.Rules Stats Wind Profile Meteogram Temp Stats Airport Information Weather charts Add Link Nearby VenuesMetar ALERT Operation Metar Decoded Social comments